Shady Grove, Florida
Current Conditions -  °F | °C
As of 7:55 PM on Wednesday 22 Oct 2014 (Local Time) from K40J Reporting Station
Clear Clear  
Wind Chill: 63°   Ceiling: Unl
Heat Index: 63°   Visibility: 10mi
Dew Point: 52°   Wind: 3mph
Humidity: 68%   Direction: 10°N
Pressure: 30.01"   Gusts: NA
Location:  30.29°N, 83.63°W
Report Text: K40J 222355Z AUTO 01003KT 10SM CLR 17/11 A3001 RMK AO2
Loading
Personal Weather Stations






























Interactive Weather Map
Tropical Storm Tracking
New forecast layout! Learn more

10-Day Weather Forecast

Advertisements
Track Severe Weather on mobile